Klamath Falls, OR

12:10 PM PST on December 02, 2016 (GMT -0800)
KYC Site | | Change Station

Elev 4131 ft 42.25 °N, 121.82 °W | Updated 10 seconds ago

Overcast
Overcast
33.1 °F
Feels Like 33 °F
N
1.8
Wind Variable Wind from NW
Gusts 1.8 mph

Today
High -- | Low -- °F
--% Chance of Precip.
Yesterday
High -- | Low -- °F
Precip. -- in
Pressure 30.43 in
Visibility 10.0 miles
Clouds Overcast 5000 ft
Windchill 33 °F
Dew Point 25 °F
Humidity 73%
Rainfall 0.00 in
Snow Depth Not available.
7:18 AM 4:35 PM
Waxing Crescent, 10% visible
METAR KLMT 021953Z 00000KT 10SM OVC050 02/M03 A3035 RMK AO2 SLP302 T00171028
Pressure 30.43 in
Visibility 10.0 miles
Clouds Overcast 5000 ft
Windchill 33 °F
Dew Point 25 °F
Humidity 73%
Rainfall 0.00 in
Snow Depth Not available.
7:18 AM 4:35 PM
Waxing Crescent, 10% visible
METAR KLMT 021953Z 00000KT 10SM OVC050 02/M03 A3035 RMK AO2 SLP302 T00171028

10-Day Weather Forecast

Almanac

Astronomy

Dec. 02, 2016 Rise Set
Actual Time
Civil Twilight
Nautical Twilight
Astronomical Twilight
Moon
Length of Visible Light
Length of Day
Tomorrow will be .
, % of the Moon is Illuminated

Today's Extremes

State Highs State Lows

Community

WunderPhotos

Upload Photos

1,955,348 photos uploaded!

WunderBlog® & News

Nearby

Air Quality

  Air Quality AQ Index Pollutant
Not available.

Snow Depth

Station Depth Elevation

Earthquake Activity

City Distance Mag. Time & Date
Minimum magnitude displayed is 2.5.

Coastal Water Temperatures

Place Temperature

Stations

Nearby Weather Stations

Station Location Temp. Windchill Dew Point Humidity Wind Precip. Elev Updated Type
                   

Watches & Warnings

There are currently no watches in effect.